Home   Weather   Bulgaria   Sunny Beach   Past weeks
Flag for Bulgaria

Past Weather in Sunny Beach, Bulgaria — Yesterday and Last 2 Weeks

Currently: 72 °F. Clear. (Weather station: Burgas Airport, Bulgaria). See more current weather

Past Weather in Sunny Beach — Graph

°F

Sunny Beach Temperature Yesterday

Maximum temperature yesterday: 86 °F (at 1:30 pm)
Minimum temperature yesterday: 61 °F (at 5:30 am)
Average temperature yesterday: 73 °F

High & Low Weather Summary for the Past Weeks

 TemperatureHumidityPressure
High95 °F (Jun 11, 2:00 pm)94% (Jun 3, 6:00 am)30.07 "Hg (Jun 3, 6:00 am)
Low59 °F (Jun 8, 5:30 am)32% (Jun 11, 2:30 pm)29.71 "Hg (Jun 11, 5:30 pm)
Average75 °F70%29.89 "Hg
* Reported Jun 2 10:00 pm — Jun 17 10:00 pm, Sunny Beach. Weather by CustomWeather, © 2024

Note: Actual official high and low records may vary slightly from our data, if they occured in-between our weather recording intervals... More about our weather records

Sunny Beach Weather History for the Previous 24 Hours

Scroll right to see more
 ConditionsComfort  
Time TempWeatherWind HumidityBarometerVisibility
10:00 pm
Mon, Jun 17
72 °FClear.12 mph78%29.98 "HgN/A
9:30 pm73 °FClear.13 mph74%29.98 "HgN/A
9:00 pm73 °FClear.9 mph78%29.95 "HgN/A
8:30 pm77 °FClear.8 mph69%29.95 "HgN/A
7:30 pm81 °FClear.8 mph62%29.95 "HgN/A
7:00 pm82 °FClear.10 mph51%29.95 "HgN/A
6:30 pm84 °FSunny.12 mph48%29.92 "Hg10 mi
5:30 pm84 °FSunny.14 mph45%29.92 "Hg10 mi
5:00 pm86 °FSunny.14 mph46%29.92 "Hg10 mi
4:00 pm86 °FSunny.15 mph46%29.92 "Hg10 mi
3:00 pm86 °FSunny.15 mph49%29.95 "Hg10 mi
2:00 pm86 °FSunny.15 mph46%29.95 "Hg10 mi
1:30 pm88 °FSunny.14 mph43%29.95 "Hg10 mi
1:00 pm88 °FSunny.13 mph43%29.92 "Hg10 mi
12:30 pm88 °FSunny.13 mph43%29.92 "Hg10 mi
11:30 am88 °FPassing clouds.7 mph38%29.95 "HgN/A
11:00 am86 °FPassing clouds.8 mph43%29.95 "HgN/A
10:00 am82 °FPassing clouds.10 mph48%29.95 "HgN/A
9:30 am81 °FPassing clouds.12 mph48%29.95 "HgN/A
8:00 am73 °FSunny.8 mph69%29.92 "Hg10 mi
7:30 am70 °FSunny.6 mph78%29.92 "Hg10 mi
7:00 am66 °FClear.7 mph83%29.92 "HgN/A
6:30 am66 °FClear.9 mph83%29.92 "HgN/A
6:00 am64 °FClear.7 mph83%29.92 "HgN/A
5:30 am64 °FClear.8 mph88%29.92 "HgN/A
5:00 am64 °FClear.8 mph83%29.92 "HgN/A
4:30 am66 °FClear.5 mph78%29.89 "HgN/A
3:30 am64 °FClear.3 mph88%29.89 "HgN/A
3:00 am66 °FClear.3 mph83%29.89 "HgN/A
2:30 am66 °FClear.No wind78%29.89 "HgN/A
2:00 am66 °FClear.No wind78%29.89 "HgN/A
1:30 am66 °FClear.2 mph78%29.89 "HgN/A
1:00 am66 °FClear.No wind78%29.89 "HgN/A
12:00 am68 °FClear.5 mph78%29.89 "HgN/A
11:30 pm
Sun, Jun 16
68 °FClear.5 mph83%29.89 "HgN/A
11:00 pm68 °FClear.6 mph83%29.89 "HgN/A
10:30 pm70 °FClear.3 mph78%29.89 "HgN/A
10:00 pm70 °FClear.5 mph83%29.89 "HgN/A
Weather by CustomWeather, © 2024

See weather overview